createdAt,value
2022-11-29T00:01:15.194Z,3.39
2022-11-29T00:03:42.572Z,3.51
2022-11-29T00:06:15.058Z,3.54
2022-11-29T00:08:42.670Z,3.43
2022-11-29T00:11:14.587Z,3.40
2022-11-29T00:13:41.804Z,3.32
2022-11-29T00:16:10.153Z,3.10
2022-11-29T00:18:37.552Z,3.08
2022-11-29T00:21:06.366Z,3.08
2022-11-29T00:23:33.918Z,3.00
2022-11-29T00:26:05.410Z,3.01
2022-11-29T00:28:32.933Z,3.18
2022-11-29T00:31:00.427Z,2.96
2022-11-29T00:33:27.877Z,3.04
2022-11-29T00:35:55.119Z,3.00
2022-11-29T00:38:22.392Z,2.84
2022-11-29T00:40:52.975Z,2.98
2022-11-29T00:43:20.326Z,3.00
2022-11-29T00:45:47.547Z,3.00
2022-11-29T00:48:14.875Z,2.93
2022-11-29T00:50:42.254Z,2.98
2022-11-29T00:53:09.682Z,2.94
2022-11-29T00:55:36.950Z,2.93
2022-11-29T00:58:04.308Z,2.91
2022-11-29T01:00:31.535Z,2.91
2022-11-29T01:02:58.790Z,2.90
2022-11-29T01:05:26.007Z,2.97
2022-11-29T01:07:53.346Z,2.90
2022-11-29T01:10:20.788Z,2.90
2022-11-29T01:12:48.084Z,2.96
2022-11-29T01:15:15.327Z,2.93
2022-11-29T01:17:42.826Z,2.97
2022-11-29T01:20:11.452Z,2.89
2022-11-29T01:22:38.916Z,2.87
2022-11-29T01:25:07.422Z,3.00
2022-11-29T01:27:34.888Z,3.04
2022-11-29T01:30:02.143Z,2.87
2022-11-29T01:32:29.420Z,2.89
2022-11-29T01:34:56.621Z,2.84
2022-11-29T01:37:24.041Z,2.96
2022-11-29T01:39:51.247Z,2.97
2022-11-29T01:42:18.803Z,2.89
2022-11-29T01:44:46.270Z,3.04
2022-11-29T01:47:13.880Z,2.98
2022-11-29T01:49:42.805Z,3.05
2022-11-29T01:52:19.446Z,3.00
2022-11-29T01:54:48.595Z,2.94
2022-11-29T01:57:15.819Z,2.94
2022-11-29T01:59:44.787Z,3.08
2022-11-29T02:02:39.454Z,3.08
2022-11-29T02:05:07.399Z,3.03
2022-11-29T02:07:34.772Z,3.07
2022-11-29T02:10:02.325Z,3.03
2022-11-29T02:12:38.013Z,3.10
2022-11-29T02:15:36.356Z,3.21
2022-11-29T02:18:07.103Z,3.28
2022-11-29T02:20:46.516Z,3.25
2022-11-29T02:23:51.332Z,3.15
2022-11-29T02:27:00.245Z,3.25
2022-11-29T02:30:05.098Z,3.31
2022-11-29T02:32:41.096Z,3.34
2022-11-29T02:35:42.117Z,3.40
2022-11-29T02:38:18.313Z,3.40
2022-11-29T02:41:09.974Z,3.22
2022-11-29T02:44:06.524Z,3.12
2022-11-29T02:46:39.529Z,3.05
2022-11-29T02:49:24.929Z,3.25
2022-11-29T02:52:59.739Z,3.24
2022-11-29T02:56:04.821Z,3.25
2022-11-29T02:59:19.846Z,3.22
2022-11-29T03:02:05.641Z,3.25
2022-11-29T03:04:58.467Z,3.28
2022-11-29T03:07:35.952Z,3.29
2022-11-29T03:10:18.475Z,3.36
2022-11-29T03:12:47.775Z,3.25
2022-11-29T03:15:31.818Z,3.22
2022-11-29T03:18:20.440Z,3.34
2022-11-29T03:21:06.167Z,3.38
2022-11-29T03:23:57.531Z,3.25
2022-11-29T03:26:30.242Z,3.35
2022-11-29T03:29:10.401Z,3.39
2022-11-29T03:31:39.139Z,3.39
2022-11-29T03:34:18.505Z,3.65
2022-11-29T03:37:02.629Z,3.54
2022-11-29T03:39:45.054Z,3.40
2022-11-29T03:42:19.837Z,3.42
2022-11-29T03:44:51.419Z,3.59
2022-11-29T03:47:22.253Z,3.52
2022-11-29T03:50:16.855Z,3.52
2022-11-29T03:53:13.158Z,3.60
2022-11-29T03:55:54.982Z,3.65
2022-11-29T03:58:53.091Z,3.62
2022-11-29T04:01:38.876Z,3.58
2022-11-29T04:04:24.976Z,3.66
2022-11-29T04:07:00.884Z,3.79
2022-11-29T04:09:39.327Z,3.72
2022-11-29T04:12:18.793Z,3.65
2022-11-29T04:15:01.048Z,3.69
2022-11-29T04:17:31.160Z,3.73
2022-11-29T04:20:21.686Z,3.86
2022-11-29T04:23:07.094Z,3.96
2022-11-29T04:25:34.427Z,3.93
2022-11-29T04:28:40.696Z,3.87
2022-11-29T04:31:55.982Z,3.83
2022-11-29T04:34:35.302Z,3.72
2022-11-29T04:37:08.491Z,3.70
2022-11-29T04:39:58.309Z,3.72
2022-11-29T04:42:37.727Z,3.73
2022-11-29T04:45:13.799Z,3.63
2022-11-29T04:48:02.756Z,3.43
2022-11-29T04:50:48.884Z,3.43
2022-11-29T04:53:28.638Z,3.58
2022-11-29T04:56:33.413Z,3.63
2022-11-29T04:59:20.882Z,3.70
2022-11-29T05:02:10.048Z,3.79
2022-11-29T05:05:31.163Z,3.70
2022-11-29T05:08:31.980Z,3.62
2022-11-29T05:11:27.551Z,3.73
2022-11-29T05:14:28.797Z,3.42
2022-11-29T05:17:20.600Z,3.60
2022-11-29T05:20:15.711Z,3.58
2022-11-29T05:23:16.359Z,3.46
2022-11-29T05:26:03.882Z,3.63
2022-11-29T05:29:03.662Z,3.62
2022-11-29T05:31:52.449Z,3.40
2022-11-29T05:34:34.855Z,3.51
2022-11-29T05:37:11.988Z,3.46
2022-11-29T05:40:08.642Z,3.54
2022-11-29T05:42:39.120Z,3.32
2022-11-29T05:45:24.806Z,3.28
2022-11-29T05:48:05.327Z,3.32
2022-11-29T05:50:51.122Z,3.39
2022-11-29T05:53:22.482Z,3.36
2022-11-29T05:56:04.592Z,3.42
2022-11-29T05:58:43.670Z,3.43
2022-11-29T06:01:31.798Z,3.35
2022-11-29T06:04:00.502Z,3.27
2022-11-29T06:06:34.743Z,3.32
2022-11-29T06:09:06.484Z,3.29
2022-11-29T06:11:44.775Z,3.29
2022-11-29T06:14:47.588Z,3.24
2022-11-29T06:17:34.254Z,3.17
2022-11-29T06:20:30.129Z,3.24
2022-11-29T06:23:19.335Z,3.12
2022-11-29T06:26:07.537Z,3.17
2022-11-29T06:29:01.882Z,3.24
2022-11-29T06:31:38.824Z,3.32
2022-11-29T06:34:15.403Z,3.22
2022-11-29T06:36:48.287Z,3.29
2022-11-29T06:39:15.900Z,3.27
2022-11-29T06:41:43.289Z,3.05
2022-11-29T06:44:11.172Z,3.15
2022-11-29T06:46:55.553Z,3.18
2022-11-29T06:49:27.255Z,3.14
2022-11-29T06:52:25.615Z,3.25
2022-11-29T06:55:01.466Z,3.11
2022-11-29T06:57:39.652Z,3.22
2022-11-29T07:00:24.119Z,3.25
2022-11-29T07:03:13.250Z,3.34
2022-11-29T07:05:42.857Z,3.38
2022-11-29T07:08:16.011Z,3.39
2022-11-29T07:10:43.989Z,3.27
2022-11-29T07:13:13.809Z,3.51
2022-11-29T07:16:25.453Z,3.54
2022-11-29T07:19:14.685Z,3.29
2022-11-29T07:22:00.283Z,3.24
2022-11-29T07:25:02.713Z,3.42
2022-11-29T07:27:35.421Z,3.49
2022-11-29T07:30:19.972Z,3.58
2022-11-29T07:32:58.719Z,3.62
2022-11-29T07:35:52.470Z,3.76
2022-11-29T07:38:31.760Z,3.80
2022-11-29T07:41:07.623Z,3.73
2022-11-29T07:44:13.206Z,3.70
2022-11-29T07:46:40.616Z,3.63
2022-11-29T07:49:10.428Z,3.51
2022-11-29T07:51:37.953Z,3.58
2022-11-29T07:54:05.896Z,3.54
2022-11-29T07:56:33.239Z,3.66
2022-11-29T07:59:00.554Z,3.72
2022-11-29T08:01:28.925Z,3.80
2022-11-29T08:03:56.330Z,3.86
2022-11-29T08:06:25.597Z,3.96
2022-11-29T08:08:53.941Z,3.90
2022-11-29T08:11:22.289Z,3.96
2022-11-29T08:13:50.303Z,3.93
2022-11-29T08:16:18.438Z,4.07
2022-11-29T08:18:46.121Z,4.06
2022-11-29T08:21:18.125Z,3.91
2022-11-29T08:23:49.375Z,3.85
2022-11-29T08:26:17.675Z,3.83
2022-11-29T08:28:45.034Z,3.90
2022-11-29T08:31:13.097Z,3.83
2022-11-29T08:33:41.703Z,3.87
2022-11-29T08:36:14.740Z,3.83
2022-11-29T08:38:42.343Z,3.86
2022-11-29T08:41:14.268Z,3.94
2022-11-29T08:43:42.212Z,3.96
2022-11-29T08:46:18.315Z,3.96
2022-11-29T08:48:49.638Z,4.04
2022-11-29T08:51:17.224Z,4.03
2022-11-29T08:53:46.603Z,4.00
2022-11-29T08:57:10.028Z,4.10
2022-11-29T08:59:08.893Z,4.07
2022-11-29T09:01:36.558Z,3.97
2022-11-29T09:04:06.047Z,3.98
2022-11-29T09:06:37.744Z,4.04
2022-11-29T09:09:05.610Z,4.08
2022-11-29T09:11:34.068Z,4.20
2022-11-29T09:14:03.258Z,4.00
2022-11-29T09:16:33.234Z,4.01
2022-11-29T09:19:01.105Z,4.01
2022-11-29T09:21:30.431Z,4.16
2022-11-29T09:24:00.173Z,4.24
2022-11-29T09:26:31.175Z,4.27
2022-11-29T09:29:01.505Z,4.25
2022-11-29T09:31:30.728Z,4.30
2022-11-29T09:33:59.226Z,4.38
2022-11-29T09:36:30.166Z,4.22
2022-11-29T09:38:58.513Z,4.24
2022-11-29T09:42:03.401Z,4.21
2022-11-29T09:44:54.865Z,4.24
2022-11-29T09:47:35.383Z,4.31
2022-11-29T09:50:20.563Z,4.41
2022-11-29T09:52:47.902Z,4.35
2022-11-29T09:55:48.015Z,4.34
2022-11-29T09:58:21.256Z,4.21
2022-11-29T10:00:51.024Z,4.30
2022-11-29T10:03:31.876Z,4.42
2022-11-29T10:06:05.633Z,4.34
2022-11-29T10:08:45.662Z,4.30
2022-11-29T10:11:20.566Z,4.30
2022-11-29T10:13:53.757Z,4.30
2022-11-29T10:16:31.899Z,4.24
2022-11-29T10:19:04.324Z,4.28
2022-11-29T10:21:37.055Z,4.35
2022-11-29T10:24:07.304Z,4.31
2022-11-29T10:26:35.536Z,4.31
2022-11-29T10:29:03.192Z,4.30
2022-11-29T10:31:36.276Z,4.42
2022-11-29T10:34:11.877Z,4.72
2022-11-29T10:36:44.826Z,4.69
2022-11-29T10:39:39.785Z,4.76
2022-11-29T10:42:29.986Z,4.72
2022-11-29T10:44:57.716Z,4.76
2022-11-29T10:47:26.963Z,4.85
2022-11-29T10:49:55.477Z,4.96
2022-11-29T10:52:23.065Z,5.20
2022-11-29T10:54:51.513Z,5.36
2022-11-29T10:57:23.004Z,5.41
2022-11-29T11:00:20.553Z,5.52
2022-11-29T11:02:48.014Z,5.58
2022-11-29T11:05:19.210Z,5.50
2022-11-29T11:07:48.296Z,5.48
2022-11-29T11:10:29.383Z,5.51
2022-11-29T11:13:17.009Z,5.54
2022-11-29T11:15:44.575Z,5.55
2022-11-29T11:18:25.314Z,5.41
2022-11-29T11:20:54.020Z,5.31
2022-11-29T11:23:25.937Z,5.50
2022-11-29T11:26:12.953Z,5.47
2022-11-29T11:29:02.299Z,5.58
2022-11-29T11:31:34.992Z,5.50
2022-11-29T11:34:31.654Z,5.47
2022-11-29T11:37:32.010Z,5.40
2022-11-29T11:40:01.456Z,5.48
2022-11-29T11:42:37.305Z,5.59
2022-11-29T11:45:11.801Z,5.52
2022-11-29T11:47:48.149Z,5.48
2022-11-29T11:50:43.584Z,5.20
2022-11-29T11:53:37.746Z,5.24
2022-11-29T11:56:07.108Z,5.33
2022-11-29T11:58:43.783Z,5.41
2022-11-29T12:01:31.060Z,5.44
2022-11-29T12:04:03.253Z,5.55
2022-11-29T12:06:59.161Z,5.52
2022-11-29T12:09:41.085Z,5.50
2022-11-29T12:12:08.831Z,5.57
2022-11-29T12:14:54.913Z,5.68
2022-11-29T12:17:35.760Z,5.72
2022-11-29T12:20:21.878Z,5.64
2022-11-29T12:23:12.825Z,5.69
2022-11-29T12:25:51.060Z,5.61
2022-11-29T12:28:20.841Z,5.69
2022-11-29T12:31:08.735Z,5.71
2022-11-29T12:33:41.936Z,5.71
2022-11-29T12:36:39.474Z,5.65
2022-11-29T12:39:37.655Z,5.57
2022-11-29T12:42:18.250Z,5.69
2022-11-29T12:44:51.716Z,5.61
2022-11-29T12:47:50.356Z,5.62
2022-11-29T12:50:22.294Z,5.72
2022-11-29T12:53:51.655Z,5.69
2022-11-29T12:56:32.410Z,5.71
2022-11-29T12:59:20.341Z,5.75
2022-11-29T13:02:04.445Z,5.68
2022-11-29T13:04:36.696Z,5.79
2022-11-29T13:07:34.394Z,5.71
2022-11-29T13:10:23.479Z,5.79
2022-11-29T13:13:05.279Z,5.76
2022-11-29T13:15:43.426Z,5.84
2022-11-29T13:18:53.738Z,5.88
2022-11-29T13:21:27.111Z,5.81
2022-11-29T13:24:08.884Z,5.75
2022-11-29T13:26:42.555Z,5.66
2022-11-29T13:29:16.815Z,5.52
2022-11-29T13:31:46.184Z,5.50
2022-11-29T13:34:31.253Z,5.44
2022-11-29T13:37:35.268Z,5.44
2022-11-29T13:40:17.717Z,5.43
2022-11-29T13:43:01.557Z,5.41
2022-11-29T13:45:34.676Z,5.40
2022-11-29T13:48:02.424Z,5.52
2022-11-29T13:50:36.220Z,5.41
2022-11-29T13:53:24.637Z,5.57
2022-11-29T13:56:01.307Z,5.66
2022-11-29T13:58:28.795Z,5.68
2022-11-29T14:01:02.179Z,5.65
2022-11-29T14:03:31.950Z,5.65
2022-11-29T14:06:02.242Z,5.57
2022-11-29T14:09:01.999Z,5.51
2022-11-29T14:11:28.731Z,5.30
2022-11-29T14:14:09.148Z,5.27
2022-11-29T14:16:45.361Z,5.38
2022-11-29T14:19:30.062Z,5.52
2022-11-29T14:22:03.128Z,5.54
2022-11-29T14:24:36.204Z,5.43
2022-11-29T14:27:07.300Z,5.44
2022-11-29T14:29:49.665Z,5.36
2022-11-29T14:32:46.533Z,5.33
2022-11-29T14:35:17.155Z,5.24
2022-11-29T14:37:55.943Z,5.36
2022-11-29T14:40:35.420Z,5.41
2022-11-29T14:43:02.990Z,5.30
2022-11-29T14:45:32.136Z,5.28
2022-11-29T14:47:59.513Z,5.40
2022-11-29T14:50:37.494Z,5.31
2022-11-29T14:53:28.752Z,5.26
2022-11-29T14:56:31.144Z,5.26
2022-11-29T14:59:35.868Z,5.19
2022-11-29T15:02:07.078Z,5.15
2022-11-29T15:04:35.044Z,5.07
2022-11-29T15:07:02.299Z,5.09
2022-11-29T15:09:29.644Z,5.05
2022-11-29T15:11:58.901Z,5.09
2022-11-29T15:14:36.780Z,5.23
2022-11-29T15:17:15.955Z,5.17
2022-11-29T15:20:01.877Z,5.13
2022-11-29T15:22:36.873Z,5.05
2022-11-29T15:25:14.285Z,5.07
2022-11-29T15:28:17.424Z,5.13
2022-11-29T15:30:44.839Z,5.03
2022-11-29T15:33:22.984Z,5.00
2022-11-29T15:36:03.961Z,5.05
2022-11-29T15:38:43.157Z,5.27
2022-11-29T15:41:28.541Z,5.26
2022-11-29T15:44:03.767Z,5.06
2022-11-29T15:46:33.052Z,5.07
2022-11-29T15:49:22.035Z,5.12
2022-11-29T15:51:51.593Z,5.09
2022-11-29T15:54:36.791Z,5.07
2022-11-29T15:57:09.343Z,5.06
2022-11-29T15:59:37.701Z,5.10
2022-11-29T16:02:15.906Z,4.96
2022-11-29T16:04:46.779Z,4.80
2022-11-29T16:07:14.967Z,4.76
2022-11-29T16:09:50.309Z,5.00
2022-11-29T16:12:17.834Z,5.09
2022-11-29T16:15:03.713Z,5.01
2022-11-29T16:17:31.808Z,4.97
2022-11-29T16:20:18.833Z,4.89
2022-11-29T16:22:46.238Z,4.80
2022-11-29T16:25:19.078Z,4.93
2022-11-29T16:27:46.475Z,4.85
2022-11-29T16:30:24.443Z,4.90
2022-11-29T16:32:56.879Z,4.87
2022-11-29T16:35:33.228Z,4.82
2022-11-29T16:38:03.531Z,4.95
2022-11-29T16:40:32.173Z,4.85
2022-11-29T16:43:18.627Z,4.87
2022-11-29T16:45:47.021Z,4.78
2022-11-29T16:48:23.302Z,4.72
2022-11-29T16:51:09.603Z,4.69
2022-11-29T16:53:37.550Z,4.69
2022-11-29T16:56:05.487Z,4.69
2022-11-29T16:58:33.524Z,4.78
2022-11-29T17:01:29.647Z,4.58
2022-11-29T17:03:57.993Z,4.68
2022-11-29T17:06:25.299Z,4.76
2022-11-29T17:08:53.464Z,4.69
2022-11-29T17:11:20.763Z,4.69
2022-11-29T17:13:48.908Z,4.62
2022-11-29T17:16:17.804Z,4.61
2022-11-29T17:18:45.412Z,4.48
2022-11-29T17:21:18.393Z,4.65
2022-11-29T17:23:46.052Z,4.51
2022-11-29T17:26:13.315Z,4.59
2022-11-29T17:28:40.768Z,4.54
2022-11-29T17:31:12.011Z,4.62
2022-11-29T17:33:39.484Z,4.78
2022-11-29T17:36:11.296Z,4.62
2022-11-29T17:38:38.588Z,4.79
2022-11-29T17:41:10.075Z,4.78
2022-11-29T17:43:37.423Z,4.65
2022-11-29T17:46:12.115Z,4.54
2022-11-29T17:48:39.656Z,4.59
2022-11-29T17:51:22.850Z,4.54
2022-11-29T17:53:55.463Z,4.35
2022-11-29T17:56:24.784Z,4.42
2022-11-29T17:58:55.826Z,4.56
2022-11-29T18:01:24.780Z,4.56
2022-11-29T18:03:54.164Z,4.55
2022-11-29T18:06:23.153Z,4.45
2022-11-29T18:08:56.242Z,4.48
2022-11-29T18:11:35.330Z,4.55
2022-11-29T18:14:10.428Z,4.45
2022-11-29T18:16:37.865Z,4.31
2022-11-29T18:19:07.003Z,4.38
2022-11-29T18:21:37.023Z,4.27
2022-11-29T18:24:05.357Z,4.31
2022-11-29T18:26:33.223Z,4.41
2022-11-29T18:29:00.666Z,4.45
2022-11-29T18:31:32.828Z,4.41
2022-11-29T18:34:01.315Z,4.40
2022-11-29T18:36:30.519Z,4.33
2022-11-29T18:39:02.573Z,4.10
2022-11-29T18:41:30.255Z,4.17
2022-11-29T18:43:59.278Z,4.27
2022-11-29T18:46:27.621Z,4.34
2022-11-29T18:48:54.996Z,4.42
2022-11-29T18:51:22.311Z,4.40
2022-11-29T18:53:49.578Z,4.38
2022-11-29T18:56:18.641Z,4.30
2022-11-29T18:58:47.341Z,4.37
2022-11-29T19:01:15.994Z,4.42
2022-11-29T19:03:45.596Z,4.20
2022-11-29T19:06:15.400Z,4.45
2022-11-29T19:08:42.925Z,4.37
2022-11-29T19:11:11.783Z,4.35
2022-11-29T19:13:39.291Z,4.59
2022-11-29T19:16:13.079Z,4.48
2022-11-29T19:18:40.520Z,4.35
2022-11-29T19:21:12.397Z,4.41
2022-11-29T19:23:39.942Z,4.31
2022-11-29T19:26:14.361Z,4.42
2022-11-29T19:28:42.998Z,4.61
2022-11-29T19:31:11.103Z,4.58
2022-11-29T19:33:39.196Z,4.47
2022-11-29T19:36:07.890Z,4.42
2022-11-29T19:38:35.720Z,4.35
2022-11-29T19:41:22.476Z,4.42
2022-11-29T19:43:49.854Z,4.48
2022-11-29T19:46:21.777Z,4.52
2022-11-29T19:48:49.355Z,4.41
2022-11-29T19:51:19.530Z,4.33
2022-11-29T19:53:47.056Z,4.13
2022-11-29T19:56:15.868Z,4.10
2022-11-29T19:58:43.731Z,4.18
2022-11-29T20:01:16.690Z,4.11
2022-11-29T20:03:45.105Z,4.14
2022-11-29T20:06:13.635Z,4.01
2022-11-29T20:08:41.157Z,4.03
2022-11-29T20:11:19.410Z,4.01
2022-11-29T20:13:48.023Z,4.13
2022-11-29T20:16:16.018Z,4.03
2022-11-29T20:18:48.929Z,4.04
2022-11-29T20:21:25.684Z,4.07
2022-11-29T20:24:00.150Z,4.06
2022-11-29T20:26:27.903Z,4.13
2022-11-29T20:28:55.163Z,4.07
2022-11-29T20:31:23.240Z,4.22
2022-11-29T20:33:52.029Z,4.40
2022-11-29T20:36:43.247Z,4.34
2022-11-29T20:39:38.903Z,4.17
2022-11-29T20:42:41.535Z,4.33
2022-11-29T20:45:12.291Z,4.17
2022-11-29T20:48:13.162Z,4.21
2022-11-29T20:50:40.570Z,4.21
2022-11-29T20:53:07.769Z,4.31
2022-11-29T20:55:42.444Z,4.51
2022-11-29T20:58:13.761Z,4.17
2022-11-29T21:00:40.999Z,4.03
2022-11-29T21:03:08.272Z,4.08
2022-11-29T21:05:37.965Z,4.10
2022-11-29T21:08:05.386Z,4.21
2022-11-29T21:10:32.666Z,4.47
2022-11-29T21:13:00.436Z,4.61
2022-11-29T21:15:28.106Z,4.73
2022-11-29T21:17:55.726Z,4.76
2022-11-29T21:20:24.637Z,4.73
2022-11-29T21:22:55.039Z,4.72
2022-11-29T21:25:53.662Z,4.64
2022-11-29T21:28:20.957Z,4.56
2022-11-29T21:30:48.512Z,4.73
2022-11-29T21:33:15.969Z,4.78
2022-11-29T21:35:43.256Z,4.92
2022-11-29T21:38:14.913Z,4.85
2022-11-29T21:40:42.355Z,4.55
2022-11-29T21:43:09.587Z,4.45
2022-11-29T21:45:36.879Z,4.52
2022-11-29T21:48:04.307Z,4.59
2022-11-29T21:50:31.565Z,4.58
2022-11-29T21:52:58.741Z,4.79
2022-11-29T21:55:31.748Z,4.92
2022-11-29T21:57:59.578Z,4.89
2022-11-29T22:00:26.872Z,4.89
2022-11-29T22:02:58.982Z,4.90
2022-11-29T22:05:26.233Z,4.59
2022-11-29T22:07:56.456Z,4.59
2022-11-29T22:10:23.815Z,4.62
2022-11-29T22:12:52.606Z,4.55
2022-11-29T22:15:24.508Z,4.71
2022-11-29T22:17:53.483Z,4.52
2022-11-29T22:20:20.825Z,4.64
2022-11-29T22:22:48.724Z,4.83
2022-11-29T22:25:16.085Z,4.82
2022-11-29T22:27:43.423Z,4.75
2022-11-29T22:30:11.079Z,4.76
2022-11-29T22:32:38.422Z,4.73
2022-11-29T22:35:07.157Z,4.65
2022-11-29T22:37:34.460Z,4.72
2022-11-29T22:40:01.685Z,4.75
2022-11-29T22:42:28.942Z,4.80
2022-11-29T22:44:56.190Z,4.82
2022-11-29T22:47:23.483Z,4.73
2022-11-29T22:49:50.691Z,4.80
2022-11-29T22:52:17.994Z,4.86
2022-11-29T22:54:45.775Z,4.76
2022-11-29T22:57:13.330Z,4.58
2022-11-29T22:59:40.534Z,4.58
2022-11-29T23:02:07.886Z,4.73
2022-11-29T23:04:35.207Z,4.56
2022-11-29T23:07:02.685Z,4.68
2022-11-29T23:09:29.908Z,4.65
2022-11-29T23:11:57.251Z,4.64
2022-11-29T23:14:24.623Z,4.65
2022-11-29T23:16:52.074Z,4.73
2022-11-29T23:19:20.001Z,4.73
2022-11-29T23:21:47.428Z,4.69
2022-11-29T23:24:15.071Z,4.79
2022-11-29T23:26:44.859Z,4.65
2022-11-29T23:29:13.832Z,4.69
2022-11-29T23:31:41.215Z,4.85
2022-11-29T23:34:08.538Z,4.97
2022-11-29T23:36:35.925Z,4.99
2022-11-29T23:39:04.991Z,5.03
2022-11-29T23:41:32.917Z,4.73
2022-11-29T23:44:00.135Z,4.72
2022-11-29T23:46:27.423Z,4.76
2022-11-29T23:48:54.657Z,4.64
2022-11-29T23:51:21.930Z,4.48
2022-11-29T23:53:52.581Z,4.48
2022-11-29T23:56:19.983Z,4.61
2022-11-29T23:58:47.463Z,4.52
